Time;durP1;ratioP1;P1;durP2;ratioP2;P2;SDS_P1;SDS_P2;PMS_P1;PMS_P2;Temp;Humidity;BMP_temperature;BMP_pressure;BME280_temperature;BME280_humidity;BME280_pressure;Samples;Min_cycle;Max_cycle;Signal;HPM_P1;HPM_P2
2022/11/08 01:24:57;;;;;;;96.77;7.80;;;;;;;;;;6145026;22;1327749;-87
2022/11/08 01:28:02;;;;;;;40.17;6.80;;;;;;;;;;6227642;23;20216;-86
2022/11/08 01:31:08;;;;;;;27.60;6.90;;;;;;;;;;6227962;23;20218;-87
2022/11/08 01:34:13;;;;;;;34.60;7.17;;;;;;;;;;6228529;23;20243;-87
2022/11/08 01:37:19;;;;;;;58.43;7.57;;;;;;;;;;6228919;23;20167;-88
2022/11/08 01:40:25;;;;;;;29.00;7.30;;;;;;;;;;6228625;23;20234;-89
2022/11/08 01:43:36;;;;;;;41.33;7.63;;;;;;;;;;6227013;23;20606;-89
2022/11/08 01:46:42;;;;;;;49.87;7.63;;;;;;;;;;6228810;23;20234;-88
2022/11/08 01:49:47;;;;;;;34.43;7.33;;;;;;;;;;6227872;23;20250;-86
2022/11/08 01:52:55;;;;;;;59.20;7.47;;;;;;;;;;6230836;23;20166;-87
2022/11/08 01:56:02;;;;;;;94.80;9.10;;;;;;;;;;6228333;23;20209;-88
2022/11/08 01:59:08;;;;;;;77.33;8.43;;;;;;;;;;6226702;23;20172;-88
2022/11/08 02:02:14;;;;;;;73.73;8.43;;;;;;;;;;6226501;23;20167;-88
2022/11/08 02:05:26;;;;;;;52.47;8.40;;;;;;;;;;6229925;23;20190;-89
2022/11/08 02:08:33;;;;;;;59.63;7.63;;;;;;;;;;6226260;23;20557;-88
2022/11/08 02:11:40;;;;;;;40.73;7.23;;;;;;;;;;6227924;23;20186;-88
2022/11/08 02:14:45;;;;;;;29.90;7.20;;;;;;;;;;6226529;23;20442;-89
2022/11/08 02:17:50;;;;;;;51.80;7.77;;;;;;;;;;6227311;23;20155;-88
2022/11/08 02:21:07;;;;;;;78.70;8.63;;;;;;;;;;6226881;23;20167;-90
2022/11/08 02:24:13;;;;;;;41.33;7.90;;;;;;;;;;6227129;23;20596;-91
2022/11/08 02:27:19;;;;;;;40.80;8.60;;;;;;;;;;6227852;23;20259;-88
2022/11/08 02:30:24;;;;;;;75.93;8.53;;;;;;;;;;6191205;23;20198;-89
2022/11/08 02:33:29;;;;;;;56.67;8.77;;;;;;;;;;6198639;23;20224;-88
2022/11/08 02:36:35;;;;;;;94.80;10.73;;;;;;;;;;6083190;23;20203;-87
2022/11/08 02:39:43;;;;;;;56.43;9.63;;;;;;;;;;5894116;24;20198;-87
2022/11/08 04:49:53;;;;;;;38.00;10.70;;;;;;;;;;5515186;25;20211;-90
2022/11/08 04:52:58;;;;;;;64.00;11.87;;;;;;;;;;5723465;24;20276;-86
2022/11/08 04:56:04;;;;;;;48.00;10.93;;;;;;;;;;5755596;24;20183;-88
2022/11/08 04:59:10;;;;;;;51.47;9.80;;;;;;;;;;5757279;24;20179;-89
2022/11/08 05:02:16;;;;;;;76.00;11.00;;;;;;;;;;5757261;24;20649;-88
2022/11/08 05:05:23;;;;;;;32.80;10.90;;;;;;;;;;5728213;25;20280;-87
2022/11/08 05:08:28;;;;;;;33.77;9.77;;;;;;;;;;5744616;25;20179;-86
2022/11/08 05:11:33;;;;;;;33.50;10.10;;;;;;;;;;5757643;24;20183;-87
2022/11/08 05:14:41;;;;;;;39.93;10.50;;;;;;;;;;5757253;24;20163;-88
2022/11/08 05:17:46;;;;;;;42.60;10.27;;;;;;;;;;5741296;24;20281;-89
2022/11/08 05:24:18;;;;;;;55.30;11.40;;;;;;;;;;5727132;24;20223;-86
2022/11/08 05:27:24;;;;;;;46.83;10.10;;;;;;;;;;5741506;24;20179;-87
2022/11/08 05:30:29;;;;;;;114.73;12.20;;;;;;;;;;5741059;24;20179;-88
2022/11/08 05:33:34;;;;;;;78.33;12.67;;;;;;;;;;5757860;24;20186;-87
2022/11/08 05:36:41;;;;;;;65.90;11.43;;;;;;;;;;5742714;25;20179;-85
2022/11/08 05:39:46;;;;;;;45.90;11.33;;;;;;;;;;5739838;24;20200;-89
2022/11/08 05:42:54;;;;;;;34.90;11.47;;;;;;;;;;5752636;24;20256;-87
2022/11/08 05:46:06;;;;;;;58.30;11.27;;;;;;;;;;5740020;24;20267;-88
2022/11/08 05:49:11;;;;;;;26.57;11.63;;;;;;;;;;5825252;24;1187860;-89
2022/11/08 05:52:18;;;;;;;38.97;10.27;;;;;;;;;;5920093;24;20313;-87
2022/11/08 05:55:22;;;;;;;42.33;11.50;;;;;;;;;;5898208;24;20179;-89
2022/11/08 05:58:28;;;;;;;68.83;11.07;;;;;;;;;;5897483;24;20174;-87
2022/11/08 06:01:33;;;;;;;70.83;10.43;;;;;;;;;;5899348;24;20164;-88
2022/11/08 06:04:38;;;;;;;67.87;10.97;;;;;;;;;;5901315;24;20179;-88
2022/11/08 06:07:46;;;;;;;70.13;10.40;;;;;;;;;;5899282;24;20175;-88
2022/11/08 06:10:51;;;;;;;45.63;11.20;;;;;;;;;;5899908;24;20179;-88
2022/11/08 06:13:56;;;;;;;68.70;11.40;;;;;;;;;;5898149;24;20343;-88
2022/11/08 06:17:01;;;;;;;39.93;10.80;;;;;;;;;;5883192;24;20198;-86
2022/11/08 06:20:08;;;;;;;37.03;11.73;;;;;;;;;;5899606;24;20179;-87
2022/11/08 06:23:14;;;;;;;58.27;11.47;;;;;;;;;;5898951;24;20926;-88
2022/11/08 06:26:21;;;;;;;49.43;9.27;;;;;;;;;;5899454;24;20646;-87
2022/11/08 06:29:27;;;;;;;51.63;11.20;;;;;;;;;;5883480;24;20251;-89
2022/11/08 06:32:32;;;;;;;33.60;11.20;;;;;;;;;;5901146;24;20199;-87
2022/11/08 06:35:37;;;;;;;40.80;11.20;;;;;;;;;;5900017;24;20195;-89
2022/11/08 06:38:44;;;;;;;34.73;10.47;;;;;;;;;;5900894;24;20204;-89
2022/11/08 06:41:49;;;;;;;38.80;11.03;;;;;;;;;;5899116;24;20191;-89
2022/11/08 06:44:54;;;;;;;28.50;9.00;;;;;;;;;;5901616;24;20213;-87
2022/11/08 06:47:59;;;;;;;36.30;10.10;;;;;;;;;;5939688;23;20271;-89
2022/11/08 06:51:05;;;;;;;81.47;10.10;;;;;;;;;;6009824;23;20241;-88
2022/11/08 06:54:12;;;;;;;55.97;11.87;;;;;;;;;;6027078;23;20176;-87
2022/11/08 06:57:17;;;;;;;46.53;11.00;;;;;;;;;;6022672;23;20168;-87
2022/11/08 07:00:22;;;;;;;90.57;12.60;;;;;;;;;;6021490;23;20176;-86
2022/11/08 07:03:27;;;;;;;70.70;13.10;;;;;;;;;;6021654;23;20293;-89
2022/11/08 07:06:33;;;;;;;75.03;12.33;;;;;;;;;;6025276;23;20236;-87
2022/11/08 07:09:39;;;;;;;64.13;11.13;;;;;;;;;;6023427;23;20242;-91
2022/11/08 07:12:44;;;;;;;63.97;12.30;;;;;;;;;;6022745;23;20301;-89
2022/11/08 07:15:49;;;;;;;40.90;8.97;;;;;;;;;;6023470;23;20171;-88
2022/11/08 07:18:55;;;;;;;93.57;10.97;;;;;;;;;;6022655;23;20201;-89
2022/11/08 07:22:00;;;;;;;151.83;13.43;;;;;;;;;;6023082;23;20180;-88
2022/11/08 07:25:08;;;;;;;55.10;11.83;;;;;;;;;;6023188;23;20179;-89
2022/11/08 07:28:16;;;;;;;104.80;12.50;;;;;;;;;;6024786;23;20176;-89
2022/11/08 07:31:22;;;;;;;45.53;11.30;;;;;;;;;;6023648;23;20248;-90
2022/11/08 07:34:28;;;;;;;26.60;11.47;;;;;;;;;;6024808;23;20180;-89
2022/11/08 07:37:33;;;;;;;57.07;12.70;;;;;;;;;;6029065;23;20156;-89
2022/11/08 07:40:41;;;;;;;51.73;11.87;;;;;;;;;;6026497;23;20180;-91
2022/11/08 07:43:47;;;;;;;57.87;11.27;;;;;;;;;;6024109;23;20179;-89
2022/11/08 07:47:15;;;;;;;33.67;11.00;;;;;;;;;;6020839;23;20220;-90
2022/11/08 07:50:21;;;;;;;45.17;11.13;;;;;;;;;;6003734;23;20202;-89
2022/11/08 07:53:27;;;;;;;59.77;11.10;;;;;;;;;;6040617;23;20176;-88
2022/11/08 07:56:39;;;;;;;43.10;11.40;;;;;;;;;;6025940;23;20190;-91
2022/11/08 07:59:45;;;;;;;28.43;10.13;;;;;;;;;;6025229;23;20172;-90
2022/11/08 08:02:50;;;;;;;26.80;10.13;;;;;;;;;;6023585;23;20201;-87
2022/11/08 08:05:56;;;;;;;26.90;10.50;;;;;;;;;;6023650;23;20211;-92
2022/11/08 08:09:01;;;;;;;31.87;11.00;;;;;;;;;;6024228;23;20225;-88
2022/11/08 08:12:09;;;;;;;55.57;10.60;;;;;;;;;;6026818;23;20233;-93
2022/11/08 08:15:14;;;;;;;33.73;10.40;;;;;;;;;;6024739;23;20240;-91
2022/11/08 08:18:20;;;;;;;43.07;10.97;;;;;;;;;;6025457;23;20180;-88
2022/11/08 08:21:26;;;;;;;82.30;11.77;;;;;;;;;;6023496;23;20248;-91
2022/11/08 08:24:31;;;;;;;32.57;10.80;;;;;;;;;;6025979;23;20223;-88
2022/11/08 08:27:39;;;;;;;24.57;9.63;;;;;;;;;;6025726;23;20175;-91
2022/11/08 08:30:44;;;;;;;34.47;10.33;;;;;;;;;;6025915;23;20168;-87
2022/11/08 08:37:14;;;;;;;47.57;10.87;;;;;;;;;;6043411;23;20521;-88
2022/11/08 08:40:19;;;;;;;24.80;11.17;;;;;;;;;;6026885;23;20628;-88
2022/11/08 08:43:27;;;;;;;23.40;10.10;;;;;;;;;;6026902;23;20172;-92
2022/11/08 08:46:32;;;;;;;34.87;10.93;;;;;;;;;;6029353;23;20196;-91
2022/11/08 08:49:39;;;;;;;25.83;9.90;;;;;;;;;;6123424;23;20639;-88
2022/11/08 08:52:45;;;;;;;22.80;10.23;;;;;;;;;;6125076;23;20173;-89
2022/11/08 08:55:51;;;;;;;25.33;9.13;;;;;;;;;;6123363;23;20153;-90
2022/11/08 08:58:58;;;;;;;24.33;9.35;;;;;;;;;;6124553;23;20174;-89
2022/11/08 09:02:03;;;;;;;19.58;9.27;;;;;;;;;;6124649;23;20231;-89
2022/11/08 09:05:10;;;;;;;31.13;10.57;;;;;;;;;;6126403;23;20177;-89
2022/11/08 09:08:15;;;;;;;33.35;12.32;;;;;;;;;;6124230;23;20169;-90
2022/11/08 09:11:24;;;;;;;20.33;9.73;;;;;;;;;;6124641;23;20235;-88
2022/11/08 09:14:31;;;;;;;18.23;9.50;;;;;;;;;;6124200;23;20173;-90
2022/11/08 09:17:36;;;;;;;18.77;8.80;;;;;;;;;;6123003;23;20180;-93
2022/11/08 09:20:42;;;;;;;22.40;10.40;;;;;;;;;;6123238;23;20173;-88
2022/11/08 09:23:49;;;;;;;19.60;9.27;;;;;;;;;;6122676;23;20169;-91
2022/11/08 09:26:55;;;;;;;19.05;9.27;;;;;;;;;;6122122;23;20193;-90
2022/11/08 09:30:02;;;;;;;30.95;9.88;;;;;;;;;;6121020;23;20225;-91
2022/11/08 09:33:07;;;;;;;19.80;9.45;;;;;;;;;;6122995;23;20201;-90
2022/11/08 09:36:13;;;;;;;21.40;9.57;;;;;;;;;;6140347;23;20628;-89
2022/11/08 09:39:20;;;;;;;24.65;9.95;;;;;;;;;;6123109;23;20172;-89
2022/11/08 09:42:31;;;;;;;23.38;10.48;;;;;;;;;;6122014;23;20189;-89
2022/11/08 09:45:42;;;;;;;25.60;10.25;;;;;;;;;;6122104;23;20512;-86
2022/11/08 09:48:47;;;;;;;26.20;10.55;;;;;;;;;;6165727;23;20249;-91
2022/11/08 09:51:52;;;;;;;21.25;10.27;;;;;;;;;;6151929;23;20184;-90
2022/11/08 09:55:05;;;;;;;25.85;12.32;;;;;;;;;;6151320;23;20216;-87
2022/11/08 09:58:27;;;;;;;33.53;14.93;;;;;;;;;;6150922;23;20157;-89
2022/11/08 10:01:34;;;;;;;28.25;12.68;;;;;;;;;;6153210;23;20177;-89
2022/11/08 10:04:39;;;;;;;29.00;14.15;;;;;;;;;;6152116;23;20180;-90
2022/11/08 10:07:48;;;;;;;38.28;18.15;;;;;;;;;;6153880;23;20192;-91
2022/11/08 10:10:58;;;;;;;35.35;16.73;;;;;;;;;;6153571;23;20236;-88
2022/11/08 10:14:14;;;;;;;34.60;13.98;;;;;;;;;;6153999;23;20184;-89
2022/11/08 10:17:30;;;;;;;45.33;20.17;;;;;;;;;;6153204;23;20228;-90
2022/11/08 10:20:43;;;;;;;31.02;15.95;;;;;;;;;;6153806;23;20177;-88
2022/11/08 10:23:54;;;;;;;36.42;18.65;;;;;;;;;;6151949;23;20246;-91
2022/11/08 10:27:00;;;;;;;39.60;16.30;;;;;;;;;;6153133;23;20197;-89
2022/11/08 10:30:07;;;;;;;31.95;12.98;;;;;;;;;;6153182;23;20216;-89
2022/11/08 10:33:21;;;;;;;24.80;11.63;;;;;;;;;;6153520;23;20554;-90
2022/11/08 10:36:28;;;;;;;22.85;11.95;;;;;;;;;;6173952;23;20642;-89
2022/11/08 10:39:38;;;;;;;24.33;12.02;;;;;;;;;;6154275;23;20164;-88
2022/11/08 10:42:46;;;;;;;31.85;12.10;;;;;;;;;;6152451;23;20177;-88
2022/11/08 10:45:51;;;;;;;29.88;11.45;;;;;;;;;;6153428;23;20177;-89
2022/11/08 10:49:00;;;;;;;19.20;8.93;;;;;;;;;;6155378;23;20181;-90
2022/11/08 10:52:17;;;;;;;19.30;10.30;;;;;;;;;;6199442;23;20164;-90
2022/11/08 10:55:24;;;;;;;16.58;8.88;;;;;;;;;;6199911;23;20176;-91
2022/11/08 10:58:31;;;;;;;19.23;9.82;;;;;;;;;;6199620;23;20168;-88
2022/11/08 11:01:36;;;;;;;18.80;9.77;;;;;;;;;;6202623;23;20171;-87
2022/11/08 11:04:43;;;;;;;23.52;10.30;;;;;;;;;;6201331;23;20171;-89
2022/11/08 11:07:58;;;;;;;20.35;10.10;;;;;;;;;;6198491;23;20253;-89
2022/11/08 11:11:22;;;;;;;17.65;9.30;;;;;;;;;;6198581;23;20160;-91
2022/11/08 11:14:27;;;;;;;20.48;9.40;;;;;;;;;;6201005;23;20171;-92
2022/11/08 11:17:34;;;;;;;15.50;8.50;;;;;;;;;;6199861;23;20255;-88
2022/11/08 11:20:41;;;;;;;14.02;6.65;;;;;;;;;;6199257;23;20163;-90
2022/11/08 11:23:48;;;;;;;17.50;9.25;;;;;;;;;;6199863;23;20163;-88
2022/11/08 11:27:01;;;;;;;15.23;7.15;;;;;;;;;;6200500;23;20743;-89
2022/11/08 11:30:29;;;;;;;12.77;6.38;;;;;;;;;;6201618;23;20508;-90
2022/11/08 11:33:44;;;;;;;14.10;7.00;;;;;;;;;;6200636;23;20168;-89
2022/11/08 11:36:54;;;;;;;11.38;5.63;;;;;;;;;;6200943;23;20172;-88
2022/11/08 11:40:04;;;;;;;11.70;6.38;;;;;;;;;;6199208;23;20533;-88
2022/11/08 11:43:11;;;;;;;16.50;6.55;;;;;;;;;;6199842;23;20174;-90
2022/11/08 11:46:21;;;;;;;14.93;6.72;;;;;;;;;;6200302;23;20176;-89
2022/11/08 11:49:30;;;;;;;15.70;6.20;;;;;;;;;;6198357;23;20195;-87
2022/11/08 11:52:37;;;;;;;11.75;5.65;;;;;;;;;;6198879;23;20167;-90
2022/11/08 11:55:49;;;;;;;15.77;6.28;;;;;;;;;;6199106;23;20172;-91
2022/11/08 11:59:07;;;;;;;13.23;6.00;;;;;;;;;;6200735;23;20228;-89
2022/11/08 12:02:27;;;;;;;12.10;6.15;;;;;;;;;;6199497;23;20176;-88
2022/11/08 12:05:39;;;;;;;8.43;5.20;;;;;;;;;;6200065;23;20168;-90
2022/11/08 12:08:53;;;;;;;12.05;5.65;;;;;;;;;;6199697;23;20171;-91
2022/11/08 12:12:04;;;;;;;11.88;5.82;;;;;;;;;;6200649;23;20250;-92
2022/11/08 12:15:13;;;;;;;9.30;5.18;;;;;;;;;;6199054;23;20172;-88
2022/11/08 12:18:42;;;;;;;8.63;4.22;;;;;;;;;;6197861;23;20171;-90
2022/11/08 12:21:50;;;;;;;7.20;4.68;;;;;;;;;;6199037;23;20267;-88
2022/11/08 12:25:01;;;;;;;8.60;4.80;;;;;;;;;;6198912;23;20203;-88
2022/11/08 12:28:16;;;;;;;11.18;4.78;;;;;;;;;;6198821;23;20291;-87
2022/11/08 12:31:26;;;;;;;10.00;4.60;;;;;;;;;;6198908;23;20160;-88
2022/11/08 12:34:36;;;;;;;10.05;4.20;;;;;;;;;;6199390;23;20244;-90
2022/11/08 12:37:50;;;;;;;17.83;3.92;;;;;;;;;;6201149;23;20225;-88
2022/11/08 12:44:40;;;;;;;12.13;4.15;;;;;;;;;;6200632;23;20167;-91
2022/11/08 12:47:48;;;;;;;14.10;4.20;;;;;;;;;;6197596;23;20639;-89
2022/11/08 12:50:58;;;;;;;9.30;4.30;;;;;;;;;;6198125;23;20192;-89
2022/11/08 12:54:09;;;;;;;8.13;3.72;;;;;;;;;;6201963;23;20160;-90
2022/11/08 12:57:26;;;;;;;11.07;3.83;;;;;;;;;;6201536;23;20565;-90
2022/11/08 13:00:35;;;;;;;8.57;3.13;;;;;;;;;;6201457;23;20172;-90
2022/11/08 13:03:55;;;;;;;8.85;3.35;;;;;;;;;;6199665;23;20643;-88
2022/11/08 13:07:04;;;;;;;10.32;3.88;;;;;;;;;;6199084;23;20253;-89
2022/11/08 13:10:16;;;;;;;6.28;3.10;;;;;;;;;;6198607;23;20167;-89
2022/11/08 13:13:28;;;;;;;9.32;3.63;;;;;;;;;;6200187;23;20212;-90
2022/11/08 13:16:37;;;;;;;10.00;3.22;;;;;;;;;;6200628;23;20211;-88
2022/11/08 13:19:58;;;;;;;7.03;2.97;;;;;;;;;;6202779;23;20172;-89
2022/11/08 13:23:07;;;;;;;7.00;3.45;;;;;;;;;;6199745;23;20167;-88
2022/11/08 13:26:20;;;;;;;16.10;4.40;;;;;;;;;;6201890;23;20234;-87
2022/11/08 13:29:28;;;;;;;7.00;3.35;;;;;;;;;;6203274;23;20242;-86
2022/11/08 13:32:41;;;;;;;15.00;3.22;;;;;;;;;;6200828;23;20249;-89
2022/11/08 13:35:50;;;;;;;13.23;5.45;;;;;;;;;;6200746;23;20240;-89
2022/11/08 13:39:01;;;;;;;10.77;4.03;;;;;;;;;;6200868;23;20172;-88
2022/11/08 13:42:28;;;;;;;22.13;7.80;;;;;;;;;;6201370;23;20324;-89
2022/11/08 13:45:35;;;;;;;8.43;3.75;;;;;;;;;;6199904;23;20219;-92
2022/11/08 13:48:43;;;;;;;8.55;3.85;;;;;;;;;;6199771;23;20507;-90
2022/11/08 13:51:50;;;;;;;6.25;3.05;;;;;;;;;;6199459;23;20168;-88
2022/11/08 13:54:58;;;;;;;9.98;3.05;;;;;;;;;;6200661;23;20172;-90
2022/11/08 13:58:04;;;;;;;8.00;2.80;;;;;;;;;;6201550;23;20614;-90
2022/11/08 14:01:30;;;;;;;7.63;3.47;;;;;;;;;;6202423;23;20160;-91
2022/11/08 14:04:37;;;;;;;5.60;2.85;;;;;;;;;;6203289;23;20160;-89
2022/11/08 14:07:45;;;;;;;10.43;3.33;;;;;;;;;;6200388;23;20183;-89
2022/11/08 14:11:05;;;;;;;6.25;3.20;;;;;;;;;;6200148;23;20163;-90
2022/11/08 14:14:33;;;;;;;6.38;3.38;;;;;;;;;;6197722;23;20164;-90
2022/11/08 14:17:43;;;;;;;8.13;3.00;;;;;;;;;;6200540;23;20222;-90
2022/11/08 14:20:56;;;;;;;7.95;3.22;;;;;;;;;;6201265;23;20168;-88
2022/11/08 14:24:02;;;;;;;6.30;3.20;;;;;;;;;;6202343;23;20208;-92
2022/11/08 14:27:07;;;;;;;8.70;3.28;;;;;;;;;;6198934;23;20650;-91
2022/11/08 14:30:22;;;;;;;6.53;2.88;;;;;;;;;;6200663;23;20220;-90
2022/11/08 14:33:31;;;;;;;5.55;2.55;;;;;;;;;;6205454;23;20153;-88
2022/11/08 14:36:41;;;;;;;7.03;3.40;;;;;;;;;;6204068;23;20284;-89
2022/11/08 14:39:47;;;;;;;5.82;2.72;;;;;;;;;;6197697;23;20188;-92
2022/11/08 14:42:54;;;;;;;9.55;4.85;;;;;;;;;;6199113;23;20167;-90
2022/11/08 14:46:00;;;;;;;5.05;2.40;;;;;;;;;;6200218;23;20224;-89
2022/11/08 14:49:11;;;;;;;4.43;2.47;;;;;;;;;;6196671;23;20215;-91
2022/11/08 14:52:17;;;;;;;4.78;2.53;;;;;;;;;;6197572;23;20168;-90
2022/11/08 14:55:24;;;;;;;7.03;2.97;;;;;;;;;;6200139;23;20172;-91
2022/11/08 14:58:29;;;;;;;5.80;2.78;;;;;;;;;;6200608;23;20175;-89
2022/11/08 15:01:35;;;;;;;10.05;2.92;;;;;;;;;;6199962;23;20171;-90
2022/11/08 15:04:42;;;;;;;6.80;3.10;;;;;;;;;;6198454;23;20175;-89
2022/11/08 15:07:48;;;;;;;7.75;2.95;;;;;;;;;;6199976;23;20235;-90
2022/11/08 15:10:55;;;;;;;12.07;3.70;;;;;;;;;;6201608;23;20172;-89
2022/11/08 15:14:01;;;;;;;10.35;4.85;;;;;;;;;;6198662;23;20219;-88
2022/11/08 15:17:07;;;;;;;13.68;4.28;;;;;;;;;;6196938;23;20654;-89
2022/11/08 15:20:21;;;;;;;10.77;4.47;;;;;;;;;;6199026;23;20148;-88
2022/11/08 15:23:28;;;;;;;12.02;4.25;;;;;;;;;;6199179;23;20219;-90
2022/11/08 15:26:35;;;;;;;13.82;4.88;;;;;;;;;;6198796;23;20187;-91
2022/11/08 15:29:51;;;;;;;14.18;5.95;;;;;;;;;;6199328;23;20237;-89
2022/11/08 15:32:56;;;;;;;15.57;6.85;;;;;;;;;;6198296;23;20159;-90
2022/11/08 15:36:04;;;;;;;18.08;6.75;;;;;;;;;;6199174;23;20219;-91
2022/11/08 15:39:20;;;;;;;13.05;6.03;;;;;;;;;;6198506;23;20190;-88
2022/11/08 15:42:25;;;;;;;16.25;6.50;;;;;;;;;;6201562;23;20176;-91
2022/11/08 15:45:34;;;;;;;13.20;5.93;;;;;;;;;;6197194;23;20176;-89
2022/11/08 15:48:39;;;;;;;32.28;13.43;;;;;;;;;;6198953;23;20262;-92
2022/11/08 15:51:47;;;;;;;30.02;13.90;;;;;;;;;;6199573;23;20172;-90
2022/11/08 15:54:56;;;;;;;28.10;11.27;;;;;;;;;;6198312;23;20176;-88
2022/11/08 15:58:03;;;;;;;21.95;9.80;;;;;;;;;;6197737;23;20168;-92
2022/11/08 16:01:16;;;;;;;18.65;6.97;;;;;;;;;;6198017;23;20172;-91
2022/11/08 16:04:22;;;;;;;18.02;8.02;;;;;;;;;;6199576;23;20227;-87
2022/11/08 16:07:29;;;;;;;29.73;13.35;;;;;;;;;;6198296;23;20238;-89
2022/11/08 16:10:37;;;;;;;46.33;17.17;;;;;;;;;;6196780;23;20180;-89
2022/11/08 16:13:43;;;;;;;29.27;13.43;;;;;;;;;;6199707;23;20168;-88
2022/11/08 16:16:48;;;;;;;31.02;14.32;;;;;;;;;;6197594;23;20191;-89
2022/11/08 16:19:53;;;;;;;17.20;7.97;;;;;;;;;;6198882;23;20243;-87
2022/11/08 16:23:01;;;;;;;16.23;7.63;;;;;;;;;;6200920;23;20179;-89
2022/11/08 16:26:07;;;;;;;17.60;7.65;;;;;;;;;;6199971;23;20163;-88
2022/11/08 16:29:17;;;;;;;16.10;7.78;;;;;;;;;;6201111;23;20195;-89
2022/11/08 16:32:23;;;;;;;14.77;7.07;;;;;;;;;;6203596;23;20197;-87
2022/11/08 16:35:28;;;;;;;14.70;8.10;;;;;;;;;;6202153;23;20240;-86
2022/11/08 16:38:35;;;;;;;29.83;14.32;;;;;;;;;;6202633;23;20204;-87
2022/11/08 16:41:40;;;;;;;23.80;10.75;;;;;;;;;;6201603;23;20248;-89
2022/11/08 16:44:50;;;;;;;16.25;8.40;;;;;;;;;;6197350;23;20171;-88
2022/11/08 16:47:56;;;;;;;16.88;6.65;;;;;;;;;;6199769;23;20187;-88
2022/11/08 16:51:02;;;;;;;13.23;6.80;;;;;;;;;;6198998;23;20237;-90
2022/11/08 16:54:15;;;;;;;17.88;7.60;;;;;;;;;;6199220;23;20172;-91
2022/11/08 16:57:21;;;;;;;19.63;8.18;;;;;;;;;;6199164;23;20279;-90
2022/11/08 17:00:26;;;;;;;20.42;7.88;;;;;;;;;;6198174;23;20235;-90
2022/11/08 17:03:32;;;;;;;16.80;6.88;;;;;;;;;;6197438;23;20198;-89
2022/11/08 17:06:37;;;;;;;25.20;10.38;;;;;;;;;;6199899;23;20241;-88
2022/11/08 17:09:44;;;;;;;20.92;8.82;;;;;;;;;;6200476;23;20199;-90
2022/11/08 17:12:49;;;;;;;21.08;9.00;;;;;;;;;;6201534;23;20291;-88
2022/11/08 17:15:56;;;;;;;19.35;9.15;;;;;;;;;;6199148;23;20167;-88
2022/11/08 17:19:01;;;;;;;18.20;7.13;;;;;;;;;;6198549;23;20188;-90
2022/11/08 17:22:07;;;;;;;22.35;9.48;;;;;;;;;;6206239;23;20615;-89
2022/11/08 17:25:15;;;;;;;24.98;8.30;;;;;;;;;;6202308;23;20196;-90
2022/11/08 17:28:22;;;;;;;22.25;9.88;;;;;;;;;;6203306;23;20251;-86
2022/11/08 17:31:27;;;;;;;26.10;10.80;;;;;;;;;;6204159;23;20171;-88
2022/11/08 17:34:33;;;;;;;37.30;13.70;;;;;;;;;;6202054;23;20196;-89
2022/11/08 17:37:40;;;;;;;20.60;9.07;;;;;;;;;;6201672;23;20239;-89
2022/11/08 17:40:47;;;;;;;25.65;9.82;;;;;;;;;;6203206;23;20167;-88
2022/11/08 17:43:52;;;;;;;24.90;8.75;;;;;;;;;;6200911;23;20171;-89
2022/11/08 17:47:08;;;;;;;23.98;9.23;;;;;;;;;;6202112;23;20566;-88
2022/11/08 17:50:13;;;;;;;18.55;9.05;;;;;;;;;;6201294;23;20665;-89
2022/11/08 17:53:24;;;;;;;18.55;9.77;;;;;;;;;;6200563;23;20176;-89
2022/11/08 17:56:34;;;;;;;20.77;10.00;;;;;;;;;;6202960;23;20168;-89
2022/11/08 17:59:45;;;;;;;18.17;8.80;;;;;;;;;;6198686;23;20242;-89
2022/11/08 18:02:52;;;;;;;18.75;9.70;;;;;;;;;;6198947;23;20168;-88
2022/11/08 18:05:59;;;;;;;17.73;8.88;;;;;;;;;;6198976;23;20627;-90
2022/11/08 18:09:04;;;;;;;16.90;8.32;;;;;;;;;;6198644;23;20199;-88
2022/11/08 18:12:11;;;;;;;19.05;8.90;;;;;;;;;;6195436;23;20168;-90
2022/11/08 18:15:16;;;;;;;20.10;7.78;;;;;;;;;;6195991;23;20601;-89
2022/11/08 18:18:21;;;;;;;17.70;6.85;;;;;;;;;;6195916;23;20231;-89
2022/11/08 18:21:26;;;;;;;22.63;6.93;;;;;;;;;;6196845;23;20199;-89
2022/11/08 18:24:31;;;;;;;18.63;6.77;;;;;;;;;;6196223;23;20171;-90
2022/11/08 18:27:38;;;;;;;19.17;6.80;;;;;;;;;;6198447;23;20159;-88
2022/11/08 18:30:43;;;;;;;20.27;7.73;;;;;;;;;;6195640;23;20168;-87
2022/11/08 18:33:49;;;;;;;20.77;9.40;;;;;;;;;;6196905;23;20160;-87
2022/11/08 18:36:56;;;;;;;25.92;9.77;;;;;;;;;;6199730;23;20235;-88
2022/11/08 18:40:06;;;;;;;22.43;9.40;;;;;;;;;;6197665;23;20175;-89
2022/11/08 18:43:13;;;;;;;24.57;9.20;;;;;;;;;;6197113;23;20611;-91
2022/11/08 18:46:44;;;;;;;19.47;8.60;;;;;;;;;;6196977;23;20521;-91
2022/11/08 18:49:51;;;;;;;19.73;8.47;;;;;;;;;;6198476;23;20210;-91
2022/11/08 18:52:56;;;;;;;20.37;7.77;;;;;;;;;;6197825;23;20168;-87
2022/11/08 18:56:04;;;;;;;20.47;9.40;;;;;;;;;;6198366;23;20242;-91
2022/11/08 18:59:11;;;;;;;28.40;10.30;;;;;;;;;;6195514;23;20171;-87
2022/11/08 19:02:16;;;;;;;15.70;7.90;;;;;;;;;;6198255;23;20163;-89
2022/11/08 19:05:22;;;;;;;19.73;7.17;;;;;;;;;;6197664;23;20662;-90
2022/11/08 19:08:29;;;;;;;19.23;7.03;;;;;;;;;;6197242;23;20297;-89
2022/11/08 19:11:36;;;;;;;23.53;10.23;;;;;;;;;;6196938;23;20176;-90
2022/11/08 19:14:42;;;;;;;20.83;9.67;;;;;;;;;;6196954;23;20179;-89
2022/11/08 19:17:52;;;;;;;24.03;10.27;;;;;;;;;;6197346;23;20168;-89
2022/11/08 19:21:01;;;;;;;21.07;8.23;;;;;;;;;;6197975;23;20176;-89
2022/11/08 19:24:09;;;;;;;19.03;8.83;;;;;;;;;;6200068;23;20191;-89
2022/11/08 19:27:15;;;;;;;12.97;6.07;;;;;;;;;;6195361;23;20167;-89
2022/11/08 19:30:22;;;;;;;17.87;6.47;;;;;;;;;;6199149;23;20179;-90
2022/11/08 19:33:28;;;;;;;26.20;10.50;;;;;;;;;;6196308;23;20175;-88
2022/11/08 19:36:39;;;;;;;20.27;8.57;;;;;;;;;;6197968;23;20188;-87
2022/11/08 19:39:45;;;;;;;17.93;7.30;;;;;;;;;;6197533;23;20268;-87
2022/11/08 19:42:51;;;;;;;19.53;7.43;;;;;;;;;;6195793;23;20231;-90
2022/11/08 19:46:05;;;;;;;15.93;7.90;;;;;;;;;;6196799;23;20155;-88
2022/11/08 19:49:10;;;;;;;16.17;7.50;;;;;;;;;;6196269;23;20215;-92
2022/11/08 19:52:15;;;;;;;20.50;10.13;;;;;;;;;;6194544;23;20187;-89
2022/11/08 19:55:21;;;;;;;21.97;8.83;;;;;;;;;;6196847;23;20242;-89
2022/11/08 19:58:26;;;;;;;20.50;7.47;;;;;;;;;;6194467;23;20171;-88
2022/11/08 20:01:35;;;;;;;20.20;9.10;;;;;;;;;;6197915;23;20197;-87
2022/11/08 20:04:41;;;;;;;23.53;9.27;;;;;;;;;;6197567;23;20769;-87
2022/11/08 20:07:46;;;;;;;22.27;8.97;;;;;;;;;;6196849;23;20171;-91
2022/11/08 20:14:12;;;;;;;43.57;18.00;;;;;;;;;;6202724;23;20615;-87
2022/11/08 20:17:20;;;;;;;36.73;14.93;;;;;;;;;;6196298;23;20187;-89
2022/11/08 20:20:31;;;;;;;26.47;11.13;;;;;;;;;;6202421;23;20505;-86
2022/11/08 20:23:39;;;;;;;19.33;7.97;;;;;;;;;;6201617;23;20176;-88
2022/11/08 20:26:47;;;;;;;19.43;8.27;;;;;;;;;;6201560;23;20171;-89
2022/11/08 20:29:58;;;;;;;21.97;7.80;;;;;;;;;;6206239;23;20289;-88
2022/11/08 23:53:42;;;;;;;29.43;11.23;;;;;;;;;;6188045;23;20208;-87
2022/11/08 23:56:48;;;;;;;22.47;9.73;;;;;;;;;;6196834;23;20175;-89
2022/11/08 23:59:56;;;;;;;16.57;8.40;;;;;;;;;;6200192;23;20171;-91
